Time;durP1;ratioP1;P1;durP2;ratioP2;P2;SDS_P1;SDS_P2;PMS_P1;PMS_P2;Temp;Humidity;BMP_temperature;BMP_pressure;BME280_temperature;BME280_humidity;BME280_pressure;Samples;Min_cycle;Max_cycle;Signal;HPM_P1;HPM_P2
2021/12/03 00:00:38;;;;;;;9.00;1.77;;;;;;;;;;4978309;28;20086;-69
2021/12/03 00:03:04;;;;;;;10.75;1.80;;;;;;;;;;4995141;28;20462;-70
2021/12/03 00:05:31;;;;;;;8.25;1.75;;;;;;;;;;4994426;28;20108;-70
2021/12/03 00:07:57;;;;;;;5.30;1.85;;;;;;;;;;4994109;28;20133;-70
2021/12/03 00:10:25;;;;;;;12.23;1.60;;;;;;;;;;4994359;28;20042;-70
2021/12/03 00:12:52;;;;;;;8.77;1.85;;;;;;;;;;4978264;28;20109;-70
2021/12/03 00:15:18;;;;;;;5.10;1.60;;;;;;;;;;4994244;28;20100;-70
2021/12/03 00:17:45;;;;;;;11.73;1.75;;;;;;;;;;4961692;28;20482;-70
2021/12/03 00:20:13;;;;;;;8.70;1.80;;;;;;;;;;4994114;28;20039;-70
2021/12/03 00:22:42;;;;;;;4.20;1.52;;;;;;;;;;4994806;28;20080;-69
2021/12/03 00:25:08;;;;;;;8.98;1.60;;;;;;;;;;4994045;28;20058;-69
2021/12/03 00:27:34;;;;;;;;;;;1.30;99.90;;;;;;4978402;28;20138;-70
2021/12/03 00:30:00;;;;;;;7.05;1.67;;;;;;;;;;4993705;28;20385;-69
2021/12/03 00:32:26;;;;;;;9.25;2.00;;;;;;;;;;4994595;28;20387;-70
2021/12/03 00:34:52;;;;;;;3.83;1.70;;;;;;;;;;4994822;28;20054;-70
2021/12/03 00:37:18;;;;;;;7.38;1.83;;;;;;;;;;4993762;28;20509;-70
2021/12/03 00:39:44;;;;;;;11.35;2.55;;;;;;;;;;4977559;28;20050;-70
2021/12/03 00:42:15;;;;;;;10.02;2.38;;;;;;;;;;4994694;28;20146;-70
2021/12/03 00:44:41;;;;;;;13.32;2.80;;;;;;;;;;4977853;28;20050;-70
2021/12/03 00:47:07;;;;;;;7.28;2.20;;;;;;;;;;4993472;28;20399;-70
2021/12/03 00:49:33;;;;;;;;;;;1.60;99.90;;;;;;4994972;28;20085;-70
2021/12/03 00:51:59;;;;;;;11.57;2.13;;;;;;;;;;4994398;28;19999;-69
2021/12/03 00:54:25;;;;;;;13.80;2.63;;;;;;;;;;4992965;28;20128;-70
2021/12/03 00:56:51;;;;;;;6.82;2.28;;;;;;;;;;4994526;28;20167;-70
2021/12/03 00:59:17;;;;;;;4.28;2.03;;;;;;;;;;4992857;28;20065;-69
2021/12/03 01:01:43;;;;;;;9.07;2.00;;;;;;;;;;4994319;28;20053;-70
2021/12/03 01:04:09;;;;;;;6.07;2.92;;;;;;;;;;4994260;28;20047;-70
2021/12/03 01:06:35;;;;;;;9.13;2.30;;;;;;;;;;4993275;28;20129;-70
2021/12/03 01:09:01;;;;;;;4.80;1.95;;;;;;;;;;4977109;28;20054;-71
2021/12/03 01:11:27;;;;;;;6.35;1.77;;;;;;;;;;4993080;28;20047;-71
2021/12/03 01:13:57;;;;;;;13.73;1.75;;;;;;;;;;4992872;28;20053;-71
2021/12/03 01:16:23;;;;;;;8.82;2.05;;;;;;;;;;4992930;28;20054;-67
2021/12/03 01:18:49;;;;;;;10.20;2.20;;;;;;;;;;4994032;28;20053;-69
2021/12/03 01:21:15;;;;;;;8.15;2.10;;;;;;;;;;4992952;28;20364;-70
2021/12/03 01:23:41;;;;;;;9.45;2.13;;;;;;;;;;4993765;28;20405;-67
2021/12/03 01:26:07;;;;;;;7.53;2.28;;;;;;;;;;4992772;28;20387;-70
2021/12/03 01:28:34;;;;;;;7.25;2.25;;;;;;;;;;4992482;28;20047;-70
2021/12/03 01:31:00;;;;;;;7.00;1.90;;;;;;;;;;4992833;28;20050;-70
2021/12/03 01:33:26;;;;;;;13.27;1.95;;;;;;;;;;4993368;28;20541;-70
2021/12/03 01:35:52;;;;;;;;;;;;;;;;;;4992765;28;20053;-71
2021/12/03 01:38:18;;;;;;;3.88;1.73;;;;;;;;;;4976239;28;19925;-71
2021/12/03 01:40:44;;;;;;;7.45;2.80;;;;;;;;;;4976597;28;20052;-68
2021/12/03 01:43:15;;;;;;;7.63;1.90;;;;;;;;;;4993464;28;20084;-70
2021/12/03 01:45:41;;;;;;;8.25;1.63;;;;;;;;;;4993642;28;20061;-67
2021/12/03 01:48:08;;;;;;;8.25;1.60;;;;;;;;;;4992345;28;20141;-70
2021/12/03 01:50:34;;;;;;;;;;;;;;;;;;4993954;28;20072;-70
2021/12/03 01:53:00;;;;;;;7.03;1.58;;;;;;;;;;4993420;28;20354;-69
2021/12/03 01:55:26;;;;;;;4.75;1.60;;;;;;;;;;4976051;28;20557;-71
2021/12/03 01:57:52;;;;;;;7.00;1.63;;;;;;;;;;4993196;28;20422;-71
2021/12/03 02:00:24;;;;;;;6.80;1.40;;;;;;;;;;4992469;28;20116;-71
2021/12/03 02:02:54;;;;;;;5.80;1.38;;;;;;;;;;4992438;28;20105;-71
2021/12/03 02:05:20;;;;;;;9.55;1.70;;;;;;;;;;4992129;28;20510;-71
2021/12/03 02:07:47;;;;;;;6.97;1.58;;;;;;;;;;4992377;28;20042;-70
2021/12/03 02:10:14;;;;;;;7.50;1.52;;;;;;;;;;4992316;28;20050;-71
2021/12/03 02:12:40;;;;;;;9.18;1.60;;;;;;;;;;4991561;28;20046;-70
2021/12/03 02:15:08;;;;;;;10.18;1.70;;;;;;;;;;4993258;28;20050;-71
2021/12/03 02:17:34;;;;;;;5.95;1.67;;;;;;;;;;4992281;28;20546;-71
2021/12/03 02:20:00;;;;;;;5.70;1.48;;;;;;;;;;4976150;28;20190;-70
2021/12/03 02:22:26;;;;;;;13.90;1.80;;;;;;;;;;4992219;28;20137;-70
2021/12/03 02:24:53;;;;;;;8.90;1.60;;;;;;;;;;4991824;28;20104;-70
2021/12/03 02:27:19;;;;;;;6.65;1.50;;;;;;;;;;4991739;28;20403;-70
2021/12/03 02:29:45;;;;;;;4.07;1.40;;;;;;;;;;4992263;28;20054;-71
2021/12/03 02:32:11;;;;;;;4.93;1.45;;;;;;;;;;4992037;28;20069;-70
2021/12/03 02:34:37;;;;;;;4.07;1.40;;;;;;;;;;4992157;28;20272;-71
2021/12/03 02:37:04;;;;;;;8.70;1.45;;;;;;;;;;4992067;28;20809;-70
2021/12/03 02:39:30;;;;;;;4.80;1.30;;;;;;;;;;4992120;28;20042;-70
2021/12/03 02:41:56;;;;;;;6.53;1.52;;;;;;;;;;4991860;28;20140;-70
2021/12/03 02:44:22;;;;;;;8.95;1.70;;;;;;;;;;4992028;28;20050;-71
2021/12/03 02:46:48;;;;;;;7.57;1.48;;;;;;;;;;4993606;28;20141;-70
2021/12/03 02:49:15;;;;;;;7.05;1.58;;;;;;;;;;4979528;28;20081;-70
2021/12/03 02:51:44;;;;;;;6.60;1.55;;;;;;;;;;4996689;28;20106;-70
2021/12/03 02:54:11;;;;;;;6.97;1.60;;;;;;;;;;4995651;28;20105;-71
2021/12/03 02:56:37;;;;;;;3.78;1.60;;;;;;;;;;4995215;28;20050;-71
2021/12/03 02:59:04;;;;;;;4.80;1.42;;;;;;;;;;4995648;28;20157;-71
2021/12/03 03:01:30;;;;;;;11.25;1.60;;;;;;;;;;4979356;28;20057;-70
2021/12/03 03:03:56;;;;;;;8.35;1.63;;;;;;;;;;4996311;28;20557;-71
2021/12/03 03:06:22;;;;;;;10.40;1.63;;;;;;;;;;4994985;28;20577;-70
2021/12/03 03:08:48;;;;;;;10.02;1.60;;;;;;;;;;4995405;28;20129;-70
2021/12/03 03:11:21;;;;;;;5.40;1.55;;;;;;;;;;4995062;28;20490;-70
2021/12/03 03:13:47;;;;;;;9.70;1.67;;;;;;;;;;4995124;28;20133;-70
2021/12/03 03:16:15;;;;;;;7.90;1.67;;;;;;;;;;4995382;28;20054;-70
2021/12/03 03:18:41;;;;;;;6.47;1.45;;;;;;;;;;4995103;28;20149;-70
2021/12/03 03:21:07;;;;;;;6.00;1.60;;;;;;;;;;4994947;28;20100;-70
2021/12/03 03:23:34;;;;;;;7.47;1.65;;;;;;;;;;4994909;28;20050;-70
2021/12/03 03:26:01;;;;;;;7.97;1.67;;;;;;;;;;4994678;28;20402;-70
2021/12/03 03:28:26;;;;;;;;;;;1.90;99.90;;;;;;4996527;28;20061;-70
2021/12/03 03:30:54;;;;;;;5.43;1.50;;;;;;;;;;4995125;28;19922;-70
2021/12/03 03:33:21;;;;;;;11.00;1.80;;;;;;;;;;4978531;28;20042;-70
2021/12/03 03:35:47;;;;;;;8.80;1.88;;;;;;;;;;4995949;28;20090;-70
2021/12/03 03:38:13;;;;;;;7.35;1.30;;;;;;;;;;4978715;28;20486;-70
2021/12/03 03:40:40;;;;;;;7.70;1.67;;;2.00;99.90;;;;;;4995640;28;20133;-70
2021/12/03 03:43:06;;;;;;;7.15;1.67;;;;;;;;;;4995818;28;20132;-69
2021/12/03 03:45:33;;;;;;;4.55;1.30;;;;;;;;;;4995775;28;20052;-70
2021/12/03 03:47:59;;;;;;;5.95;1.38;;;;;;;;;;4994794;28;20581;-70
2021/12/03 03:50:25;;;;;;;7.63;1.73;;;;;;;;;;4994659;28;20061;-70
2021/12/03 03:52:52;;;;;;;;;;;2.00;99.90;;;;;;4994812;28;20120;-69
2021/12/03 03:55:19;;;;;;;5.13;1.30;;;;;;;;;;4995185;28;19945;-70
2021/12/03 03:57:46;;;;;;;8.43;1.80;;;;;;;;;;4994193;28;20076;-71
2021/12/03 04:00:14;;;;;;;11.65;1.60;;;;;;;;;;4994173;28;20101;-69
2021/12/03 04:02:41;;;;;;;8.95;1.30;;;;;;;;;;4995512;28;20057;-70
2021/12/03 04:05:07;;;;;;;;;;;2.10;99.90;;;;;;4995851;28;20057;-70
2021/12/03 04:07:33;;;;;;;7.18;1.50;;;;;;;;;;4995319;28;19928;-70
2021/12/03 04:09:59;;;;;;;6.43;1.48;;;;;;;;;;4978098;28;20046;-70
2021/12/03 04:12:25;;;;;;;11.50;1.77;;;;;;;;;;4995221;28;20544;-70
2021/12/03 04:14:51;;;;;;;5.60;1.60;;;;;;;;;;4994267;28;20050;-71
2021/12/03 04:17:17;;;;;;;4.15;1.50;;;;;;;;;;4994033;28;20046;-70
2021/12/03 04:19:43;;;;;;;8.85;1.80;;;;;;;;;;4994008;28;20101;-70
2021/12/03 04:22:14;;;;;;;11.85;2.15;;;;;;;;;;4977614;28;20054;-71
2021/12/03 04:24:40;;;;;;;10.30;1.90;;;;;;;;;;4978135;28;20062;-71
2021/12/03 04:27:06;;;;;;;6.60;2.05;;;;;;;;;;4994986;28;20057;-70
2021/12/03 04:29:33;;;;;;;6.15;2.22;;;;;;;;;;4994005;28;20069;-70
2021/12/03 04:31:59;;;;;;;13.35;2.63;;;;;;;;;;4993632;28;20049;-70
2021/12/03 04:34:25;;;;;;;5.25;2.20;;;;;;;;;;4993945;28;20069;-70
2021/12/03 04:36:51;;;;;;;10.07;2.60;;;;;;;;;;4977457;28;20050;-71
2021/12/03 04:39:17;;;;;;;9.98;2.60;;;;;;;;;;4993608;28;20073;-70
2021/12/03 04:41:43;;;;;;;9.40;2.10;;;;;;;;;;4977635;28;20042;-70
2021/12/03 04:44:09;;;;;;;;;;;;;;;;;;4993565;28;20800;-70
2021/12/03 04:46:36;;;;;;;8.15;2.70;;;;;;;;;;4993401;28;19925;-70
2021/12/03 04:49:02;;;;;;;9.23;2.58;;;;;;;;;;4993578;28;20100;-70
2021/12/03 04:51:28;;;;;;;8.98;2.80;;;;;;;;;;4993178;28;20046;-70
2021/12/03 04:53:54;;;;;;;10.88;3.10;;;;;;;;;;4994468;28;20159;-70
2021/12/03 04:56:20;;;;;;;14.88;3.42;;;;;;;;;;4993510;28;20057;-70
2021/12/03 04:58:46;;;;;;;16.50;3.72;;;;;;;;;;4994448;28;20046;-70
2021/12/03 05:01:12;;;;;;;14.52;3.63;;;;;;;;;;4993351;28;20082;-70
2021/12/03 05:03:38;;;;;;;10.63;4.53;;;;;;;;;;4977103;28;20054;-71
2021/12/03 05:06:08;;;;;;;10.02;6.38;;;;;;;;;;4992998;28;20109;-71
2021/12/03 05:08:34;;;;;;;13.35;7.53;;;;;;;;;;4993881;28;20133;-71
2021/12/03 05:11:01;;;;;;;19.27;8.35;;;;;;;;;;4992911;28;20050;-71
2021/12/03 05:13:30;;;;;;;17.67;9.75;;;;;;;;;;4992550;28;20046;-71
2021/12/03 05:15:56;;;;;;;17.98;8.98;;;;;;;;;;4993096;28;20608;-71
2021/12/03 05:18:23;;;;;;;19.50;9.45;;;;;;;;;;4994137;28;20057;-72
2021/12/03 05:20:50;;;;;;;19.50;10.18;;;;;;;;;;4992488;28;20050;-71
2021/12/03 05:23:17;;;;;;;18.08;10.55;;;2.20;99.90;;;;;;4992653;28;20160;-71
2021/12/03 05:25:44;;;;;;;22.40;10.32;;;;;;;;;;4993945;28;20058;-71
2021/12/03 05:28:10;;;;;;;24.80;10.52;;;;;;;;;;4992951;28;20415;-72
2021/12/03 05:30:37;;;;;;;22.08;10.50;;;2.20;99.90;;;;;;4992782;28;20054;-71
2021/12/03 05:33:04;;;;;;;22.30;11.35;;;;;;;;;;4993722;28;20042;-71
2021/12/03 05:35:30;;;;;;;25.85;11.27;;;;;;;;;;4992281;28;20054;-71
2021/12/03 05:37:56;;;;;;;;;;;;;;;;;;4994205;28;20137;-71
2021/12/03 05:40:22;;;;;;;20.38;10.35;;;;;;;;;;4992741;28;20008;-71
2021/12/03 05:42:48;;;;;;;28.92;11.88;;;;;;;;;;4992618;28;20137;-71
2021/12/03 05:45:17;;;;;;;23.90;11.48;;;;;;;;;;4992395;28;20042;-71
2021/12/03 05:47:44;;;;;;;23.13;11.57;;;;;;;;;;4992619;28;20050;-71
2021/12/03 05:50:11;;;;;;;19.48;10.95;;;;;;;;;;4992327;28;20057;-70
2021/12/03 05:52:37;;;;;;;24.20;10.77;;;;;;;;;;4992414;28;20054;-71
2021/12/03 05:55:04;;;;;;;26.17;10.48;;;;;;;;;;4993648;28;20046;-70
2021/12/03 05:57:30;;;;;;;21.77;11.20;;;;;;;;;;4993514;28;20121;-70
2021/12/03 05:59:56;;;;;;;21.50;11.77;;;;;;;;;;4960324;28;20061;-69
2021/12/03 06:02:22;;;;;;;22.35;11.70;;;;;;;;;;4993428;28;20132;-69
2021/12/03 06:04:48;;;;;;;21.13;12.88;;;;;;;;;;4975650;28;20050;-69
2021/12/03 06:07:14;;;;;;;25.20;12.43;;;;;;;;;;4991949;28;20515;-68
2021/12/03 06:09:42;;;;;;;23.00;13.88;;;;;;;;;;4992435;28;20394;-69
2021/12/03 06:12:08;;;;;;;29.40;14.88;;;;;;;;;;4992088;28;20442;-70
2021/12/03 06:14:34;;;;;;;29.60;16.02;;;;;;;;;;4992320;28;20046;-68
2021/12/03 06:17:00;;;;;;;31.02;15.93;;;;;;;;;;4976038;28;20380;-68
2021/12/03 06:19:27;;;;;;;29.92;16.25;;;;;;;;;;4992971;28;20506;-69
2021/12/03 06:21:53;;;;;;;;;;;;;;;;;;4995880;28;20379;-68
2021/12/03 06:24:19;;;;;;;34.88;17.00;;;;;;;;;;4997297;28;19929;-69
2021/12/03 06:26:45;;;;;;;;;;;2.60;99.90;;;;;;4996691;28;20046;-68
2021/12/03 06:29:11;;;;;;;33.83;17.17;;;;;;;;;;4997156;28;20386;-69
2021/12/03 06:31:37;;;;;;;38.58;18.13;;;;;;;;;;4997106;28;20092;-69
2021/12/03 06:34:04;;;;;;;32.60;16.08;;;;;;;;;;4996795;28;20403;-69
2021/12/03 06:36:29;;;;;;;;;;;3.00;99.90;;;;;;4997522;28;20053;-69
2021/12/03 06:38:57;;;;;;;31.17;14.80;;;;;;;;;;4996034;28;20425;-69
2021/12/03 06:41:23;;;;;;;30.83;14.85;;;;;;;;;;4995801;28;20053;-69
2021/12/03 06:43:51;;;;;;;31.40;16.85;;;;;;;;;;4996995;28;20049;-68
2021/12/03 06:46:17;;;;;;;32.35;16.52;;;;;;;;;;4996906;28;20105;-68
2021/12/03 06:48:43;;;;;;;31.73;17.17;;;;;;;;;;4995403;28;20057;-68
2021/12/03 06:51:09;;;;;;;33.63;17.48;;;;;;;;;;4995589;28;20046;-69
2021/12/03 06:53:45;;;;;;;32.33;18.20;;;;;;;;;;4996713;28;20125;-70
2021/12/03 06:56:20;;;;;;;40.13;19.63;;;;;;;;;;4995796;28;20406;-69
2021/12/03 06:58:47;;;;;;;44.72;22.83;;;;;;;;;;4995501;28;20505;-70
2021/12/03 07:01:13;;;;;;;40.15;22.60;;;;;;;;;;4995653;28;20140;-70
2021/12/03 07:03:39;;;;;;;45.22;24.98;;;;;;;;;;4979180;28;20049;-69
2021/12/03 07:06:05;;;;;;;50.75;28.02;;;;;;;;;;4996537;28;20046;-69
2021/12/03 07:08:31;;;;;;;51.45;27.60;;;;;;;;;;4996591;28;20137;-69
2021/12/03 07:10:57;;;;;;;54.47;28.45;;;;;;;;;;4996482;28;20057;-70
2021/12/03 07:13:26;;;;;;;55.08;28.45;;;;;;;;;;4995144;28;20046;-69
2021/12/03 07:15:52;;;;;;;53.55;28.98;;;;;;;;;;4979148;28;20062;-70
2021/12/03 07:18:18;;;;;;;55.85;30.40;;;;;;;;;;4995056;28;20081;-70
2021/12/03 07:20:44;;;;;;;56.58;30.98;;;;;;;;;;4990565;28;20054;-69
2021/12/03 07:23:10;;;;;;;51.78;29.00;;;;;;;;;;4994505;28;20069;-70
2021/12/03 07:25:36;;;;;;;51.88;28.10;;;;;;;;;;4994291;28;20128;-69
2021/12/03 07:28:02;;;;;;;52.55;29.27;;;;;;;;;;4993176;28;20058;-70
2021/12/03 07:30:31;;;;;;;61.70;28.95;;;;;;;;;;4994745;28;20046;-70
2021/12/03 07:32:57;;;;;;;55.92;28.25;;;;;;;;;;4993557;28;20061;-70
2021/12/03 07:35:24;;;;;;;52.35;27.50;;;;;;;;;;4992956;28;20054;-71
2021/12/03 07:37:50;;;;;;;48.00;26.23;;;;;;;;;;4993876;28;20058;-69
2021/12/03 07:40:16;;;;;;;45.92;26.02;;;;;;;;;;4994626;28;20054;-70
2021/12/03 07:42:42;;;;;;;48.05;24.83;;;;;;;;;;4992946;28;20058;-69
2021/12/03 07:45:09;;;;;;;;;;;2.80;99.90;;;;;;4993052;28;20054;-70
2021/12/03 07:47:35;;;;;;;41.10;20.67;;;;;;;;;;4993352;28;20366;-70
2021/12/03 07:50:01;;;;;;;40.25;21.33;;;;;;;;;;4992781;28;20089;-69
2021/12/03 07:52:27;;;;;;;47.45;21.38;;;;;;;;;;4977321;28;20078;-70
2021/12/03 07:54:53;;;;;;;;;;;;;;;;;;4993310;28;20451;-69
2021/12/03 07:57:19;;;;;;;42.58;18.85;;;;;;;;;;4993903;28;20029;-68
2021/12/03 07:59:46;;;;;;;42.75;16.30;;;;;;;;;;4992780;28;20046;-68
2021/12/03 08:02:12;;;;;;;25.73;14.40;;;;;;;;;;4993871;28;20085;-68
2021/12/03 08:04:38;;;;;;;26.48;13.80;;;;;;;;;;4992376;28;20104;-67
2021/12/03 08:07:04;;;;;;;24.65;13.23;;;;;;;;;;4993240;28;20057;-67
2021/12/03 08:09:31;;;;;;;27.85;13.20;;;;;;;;;;4994157;28;20419;-68
2021/12/03 08:11:57;;;;;;;23.20;12.50;;;;;;;;;;4976361;28;20563;-68
2021/12/03 08:14:23;;;;;;;22.05;11.45;;;;;;;;;;4991382;28;20082;-69
2021/12/03 08:16:49;;;;;;;23.23;10.10;;;;;;;;;;4994091;28;20050;-68
2021/12/03 08:19:15;;;;;;;17.95;9.05;;;;;;;;;;4993315;28;20054;-68
2021/12/03 08:21:41;;;;;;;16.45;8.63;;;;;;;;;;4994130;28;20054;-68
2021/12/03 08:24:07;;;;;;;20.50;8.10;;;;;;;;;;4990767;28;20063;-67
2021/12/03 08:26:34;;;;;;;18.25;7.13;;;;;;;;;;4993269;28;20058;-70
2021/12/03 08:29:00;;;;;;;;;;;;;;;;;;4993807;28;20104;-69
2021/12/03 08:31:26;;;;;;;19.42;7.70;;;;;;;;;;4993635;28;19921;-67
2021/12/03 08:33:52;;;;;;;18.80;6.80;;;;;;;;;;4991331;28;20057;-68
2021/12/03 08:36:19;;;;;;;19.52;6.97;;;;;;;;;;4993601;28;20518;-69
2021/12/03 08:38:45;;;;;;;13.98;6.22;;;;;;;;;;4989923;28;20057;-69
2021/12/03 08:41:16;;;;;;;19.27;6.80;;;;;;;;;;5007036;28;20526;-68
2021/12/03 08:43:42;;;;;;;17.30;7.53;;;;;;;;;;4995895;28;20042;-68
2021/12/03 08:46:11;;;;;;;14.35;7.18;;;;;;;;;;4997566;28;20046;-69
2021/12/03 08:48:39;;;;;;;17.35;8.85;;;;;;;;;;4993467;28;20085;-68
2021/12/03 08:56:32;;;;;;;21.27;10.00;;;;;;;;;;4994661;28;20058;-68
2021/12/03 08:58:58;;;;;;;20.48;10.85;;;;;;;;;;4976993;28;20054;-69
2021/12/03 09:01:24;;;;;;;;;;;3.80;99.90;;;;;;4994932;28;20050;-68
2021/12/03 09:03:50;;;;;;;20.75;9.95;;;;;;;;;;4994381;28;19928;-68
2021/12/03 09:06:16;;;;;;;21.27;8.55;;;;;;;;;;4993312;28;20051;-68
2021/12/03 09:08:42;;;;;;;19.67;9.43;;;;;;;;;;4994302;28;20506;-68
2021/12/03 09:11:09;;;;;;;24.50;9.02;;;3.90;99.90;;;;;;4994215;28;20057;-70
2021/12/03 09:13:35;;;;;;;21.80;8.27;;;;;;;;;;4992660;28;20046;-68
2021/12/03 09:16:08;;;;;;;19.63;7.97;;;;;;;;;;4990646;28;20091;-71
2021/12/03 09:18:37;;;;;;;17.63;7.35;;;;;;;;;;4991413;28;20100;-70
2021/12/03 09:24:07;;;;;;;16.33;6.65;;;;;;;;;;4993505;28;20055;-67
2021/12/03 09:26:28;;;;;;;19.70;6.72;;;;;;;;;;4993227;28;20077;-66
2021/12/03 09:29:01;;;;;;;16.38;6.85;;;3.90;99.90;;;;;;4993465;28;20182;-67
2021/12/03 09:31:27;;;;;;;21.15;7.47;;;;;;;;;;4993638;28;20053;-67
2021/12/03 09:33:54;;;;;;;17.08;7.22;;;;;;;;;;4992612;28;20100;-68
2021/12/03 09:36:20;;;;;;;20.80;8.57;;;;;;;;;;4992582;28;20154;-67
2021/12/03 09:38:46;;;;;;;19.20;7.85;;;;;;;;;;4992351;28;20053;-68
2021/12/03 09:41:14;;;;;;;22.73;7.95;;;;;;;;;;5024824;28;20108;-66
2021/12/03 09:43:41;;;;;;;18.05;7.88;;;;;;;;;;4992572;28;20050;-69
2021/12/03 09:46:20;;;;;;;15.93;8.02;;;;;;;;;;5024981;28;20142;-68
2021/12/03 09:49:13;;;;;;;16.98;9.75;;;;;;;;;;5008902;28;20401;-67
2021/12/03 09:51:41;;;;;;;22.42;9.80;;;;;;;;;;4992862;28;20057;-68
2021/12/03 09:54:22;;;;;;;20.10;9.10;;;;;;;;;;4993434;28;20053;-67
2021/12/03 09:56:49;;;;;;;21.75;9.73;;;;;;;;;;4992870;28;20053;-67
2021/12/03 10:02:04;;;;;;;18.63;10.07;;;;;;;;;;4993245;28;20054;-69
2021/12/03 10:12:56;;;;;;;27.50;12.18;;;;;;;;;;4992373;28;20502;-66
2021/12/03 10:17:58;;;;;;;29.23;11.10;;;4.90;99.90;;;;;;4992868;28;20536;-67
2021/12/03 10:20:39;;;;;;;21.48;10.57;;;4.50;99.90;;;;;;4976997;28;20050;-68
2021/12/03 10:36:38;;;;;;;25.48;9.27;;;;;;;;;;4991940;28;20061;-68
2021/12/03 10:44:41;;;;;;;28.77;9.55;;;;;;;;;;4992949;28;20133;-67
2021/12/03 11:12:26;;;;;;;12.25;3.80;;;;;;;;;;4996025;28;20176;-67
2021/12/03 12:07:03;;;;;;;17.67;9.52;;;;;;;;;;4993501;28;20058;-67
2021/12/03 12:15:36;;;;;;;17.95;8.68;;;;;;;;;;4991515;28;20061;-69
2021/12/03 12:23:42;;;;;;;17.65;8.23;;;;;;;;;;4993883;28;20061;-67
2021/12/03 14:12:56;;;;;;;32.97;13.63;;;;;;;;;;4992944;28;20482;-64
2021/12/03 14:35:23;;;;;;;;;;;;;;;;;;4993481;28;20526;-65
2021/12/03 14:37:56;;;;;;;;;;;4.30;99.90;;;;;;4993002;28;20374;-66
2021/12/03 14:40:35;;;;;;;24.30;12.73;;;;;;;;;;4992352;28;19928;-63
2021/12/03 14:56:13;;;;;;;27.80;14.02;;;;;;;;;;4996579;28;20498;-64
2021/12/03 15:09:09;;;;;;;27.45;17.27;;;;;;;;;;4996317;28;20133;-62
2021/12/03 15:25:10;;;;;;;32.95;22.55;;;;;;;;;;5015438;28;20080;-64
2021/12/03 16:10:52;;;;;;;41.47;26.05;;;;;;;;;;4995318;28;20050;-66
2021/12/03 16:46:28;;;;;;;47.38;24.55;;;;;;;;;;4975376;28;20057;-68
2021/12/03 16:53:52;;;;;;;47.90;24.42;;;;;;;;;;4975202;28;20133;-68
2021/12/03 16:56:24;;;;;;;41.13;24.30;;;;;;;;;;4974651;28;20101;-70
2021/12/03 16:58:50;;;;;;;48.90;27.13;;;;;;;;;;4973997;28;20054;-70
2021/12/03 17:01:26;;;;;;;45.25;26.92;;;;;;;;;;4975003;28;20050;-68
2021/12/03 17:47:28;;;;;;;;;;;4.60;99.90;;;;;;4973129;28;20050;-70
2021/12/03 17:50:07;;;;;;;43.55;21.73;;;;;;;;;;4974363;28;20298;-68
2021/12/03 17:58:03;;;;;;;41.70;22.00;;;;;;;;;;4974360;28;20061;-68
2021/12/03 18:03:07;;;;;;;42.92;22.58;;;;;;;;;;4974132;28;20058;-68
2021/12/03 18:08:27;;;;;;;40.22;21.48;;;;;;;;;;4974062;28;20093;-68
2021/12/03 18:53:47;;;;;;;56.55;26.73;;;4.80;99.90;;;;;;4995604;28;20440;-68
2021/12/03 18:56:20;;;;;;;49.40;24.63;;;;;;;;;;4997935;28;20129;-67
2021/12/03 18:58:56;;;;;;;50.47;25.20;;;;;;;;;;4998854;28;20195;-69
2021/12/03 19:01:27;;;;;;;57.85;25.48;;;;;;;;;;4997984;28;20054;-68
2021/12/03 19:04:04;;;;;;;60.53;25.48;;;;;;;;;;4993674;28;20050;-69
2021/12/03 19:06:44;;;;;;;53.50;25.55;;;;;;;;;;4995749;28;20427;-68
2021/12/03 19:09:18;;;;;;;62.10;27.30;;;;;;;;;;4998638;28;20138;-71
2021/12/03 19:11:58;;;;;;;60.30;26.73;;;;;;;;;;4998064;28;20434;-67
2021/12/03 19:14:25;;;;;;;58.63;25.48;;;;;;;;;;4997088;28;20402;-67
2021/12/03 19:16:52;;;;;;;50.83;25.30;;;;;;;;;;4996975;28;20062;-68
2021/12/03 19:19:18;;;;;;;;;;;5.10;99.90;;;;;;4998329;28;20061;-69
2021/12/03 19:21:46;;;;;;;61.85;26.80;;;;;;;;;;5018100;28;20016;-69
2021/12/03 19:24:13;;;;;;;64.30;28.38;;;5.10;99.90;;;;;;5018693;28;20144;-68
2021/12/03 19:26:43;;;;;;;73.60;29.73;;;5.00;99.90;;;;;;5018886;28;20559;-68
2021/12/03 19:29:15;;;;;;;68.05;28.33;;;5.20;99.90;;;;;;5014187;28;20038;-68
2021/12/03 19:31:41;;;;;;;63.45;28.75;;;;;;;;;;4999879;28;20103;-69
2021/12/03 19:34:08;;;;;;;68.43;31.50;;;;;;;;;;4994902;28;20042;-69
2021/12/03 19:36:38;;;;;;;69.60;30.77;;;;;;;;;;4994039;28;20046;-68
2021/12/03 19:39:05;;;;;;;70.20;31.40;;;;;;;;;;4994530;28;20054;-68
2021/12/03 19:44:11;;;;;;;71.97;32.50;;;4.80;99.90;;;;;;4994934;28;19925;-69
2021/12/03 19:46:41;;;;;;;77.95;34.75;;;;;;;;;;4993288;28;20053;-69
2021/12/03 19:49:13;;;;;;;75.35;32.60;;;;;;;;;;4991182;28;20050;-69
2021/12/03 19:51:54;;;;;;;81.22;34.20;;;;;;;;;;4989491;28;20046;-67
2021/12/03 19:54:21;;;;;;;82.18;35.03;;;;;;;;;;5025961;28;20065;-69
2021/12/03 19:56:48;;;;;;;83.75;35.53;;;;;;;;;;4994482;28;20133;-67
2021/12/03 19:59:14;;;;;;;81.18;35.55;;;5.30;99.90;;;;;;4995405;28;20502;-68
2021/12/03 20:01:40;;;;;;;;;;;5.20;99.90;;;;;;4994790;28;20054;-68
2021/12/03 20:04:07;;;;;;;103.30;38.78;;;;;;;;;;5027604;28;19949;-72
2021/12/03 20:06:34;;;;;;;96.90;38.72;;;;;;;;;;4995051;28;20113;-68
2021/12/03 20:09:02;;;;;;;96.57;36.78;;;;;;;;;;4995558;28;20046;-67
2021/12/03 20:11:51;;;;;;;110.18;38.42;;;5.20;99.90;;;;;;4994256;28;20050;-68
2021/12/03 20:14:19;;;;;;;111.80;36.78;;;;;;;;;;4980775;28;20060;-69
2021/12/03 20:19:18;;;;;;;110.65;39.60;;;;;;;;;;4994522;28;20573;-70
2021/12/03 20:21:51;;;;;;;121.75;42.78;;;;;;;;;;4995346;28;20050;-68
2021/12/03 20:24:32;;;;;;;118.45;43.72;;;;;;;;;;4995116;28;20058;-69
2021/12/03 20:27:02;;;;;;;118.07;44.13;;;;;;;;;;4995135;28;20141;-72
2021/12/03 20:32:20;;;;;;;112.78;40.42;;;5.30;99.90;;;;;;4995156;28;20186;-69
2021/12/03 20:37:20;;;;;;;111.03;42.63;;;5.30;99.90;;;;;;4977661;28;20423;-68
2021/12/03 20:39:48;;;;;;;110.13;40.67;;;;;;;;;;4994566;28;20491;-67
2021/12/03 20:42:21;;;;;;;109.88;40.20;;;;;;;;;;4994832;28;20101;-70
2021/12/03 20:45:09;;;;;;;113.78;42.08;;;;;;;;;;4994914;28;20054;-70
2021/12/03 20:48:23;;;;;;;109.22;39.92;;;;;;;;;;4994097;28;20473;-69
2021/12/03 21:09:26;;;;;;;119.10;41.38;;;;;;;;;;4994350;28;20065;-68
2021/12/03 21:11:57;;;;;;;111.60;42.58;;;;;;;;;;4994301;28;20069;-68
2021/12/03 21:14:28;;;;;;;115.22;44.22;;;;;;;;;;4993083;28;20181;-69
2021/12/03 21:17:33;;;;;;;109.78;41.47;;;;;;;;;;4994283;28;20081;-68
2021/12/03 21:19:53;;;;;;;110.88;43.88;;;;;;;;;;4991992;28;20053;-68
2021/12/03 21:22:23;;;;;;;107.75;42.35;;;5.00;99.90;;;;;;4994110;28;20062;-68
2021/12/03 21:24:52;;;;;;;105.60;38.38;;;;;;;;;;4992615;28;20058;-69
2021/12/03 21:27:20;;;;;;;105.10;40.13;;;;;;;;;;4994321;28;20054;-70
2021/12/03 21:42:43;;;;;;;107.18;40.28;;;;;;;;;;4993555;28;20525;-68
2021/12/03 21:45:09;;;;;;;111.88;42.08;;;5.10;99.90;;;;;;4993776;28;20050;-69
2021/12/03 21:47:35;;;;;;;104.85;39.83;;;5.30;99.90;;;;;;4993200;28;20054;-69
2021/12/03 21:50:01;;;;;;;105.72;37.60;;;5.30;99.90;;;;;;4993690;28;20046;-69
2021/12/03 21:52:28;;;;;;;104.60;37.13;;;;;;;;;;4991832;28;20427;-68
2021/12/03 21:54:54;;;;;;;97.55;37.65;;;;;;;;;;4993645;28;20054;-70
2021/12/03 21:57:25;;;;;;;107.93;40.40;;;5.20;99.90;;;;;;4993628;28;20085;-68
2021/12/03 21:59:51;;;;;;;105.72;38.00;;;;;;;;;;4993653;28;20348;-69
2021/12/03 22:02:17;;;;;;;104.20;38.72;;;5.20;99.90;;;;;;4992966;28;20065;-69
2021/12/03 22:04:43;;;;;;;111.72;40.28;;;;;;;;;;4992370;28;20046;-70
2021/12/03 22:07:11;;;;;;;115.15;39.53;;;5.40;99.90;;;;;;4993492;28;20050;-70
2021/12/03 22:09:38;;;;;;;112.25;39.85;;;;;;;;;;5000021;28;20109;-69
2021/12/03 22:12:04;;;;;;;109.38;38.00;;;;;;;;;;4993063;28;20639;-68
2021/12/03 22:14:30;;;;;;;116.32;38.88;;;5.40;99.90;;;;;;4993453;28;20144;-69
2021/12/03 22:16:56;;;;;;;106.60;38.92;;;5.30;99.90;;;;;;4992793;28;20051;-68
2021/12/03 22:19:22;;;;;;;112.95;37.60;;;;;;;;;;4976155;28;20442;-68
2021/12/03 22:21:48;;;;;;;110.32;37.63;;;;;;;;;;4993367;28;20086;-69
2021/12/03 22:24:14;;;;;;;114.10;38.65;;;;;;;;;;4975618;28;20055;-69
2021/12/03 22:26:40;;;;;;;112.22;37.50;;;;;;;;;;5025122;28;20069;-70
2021/12/03 22:29:06;;;;;;;122.07;37.97;;;;;;;;;;4993284;28;20046;-68
2021/12/03 22:31:32;;;;;;;113.88;36.70;;;5.10;99.90;;;;;;4993041;28;20046;-67
2021/12/03 22:33:58;;;;;;;116.38;36.90;;;5.40;99.90;;;;;;4993200;28;20061;-68
2021/12/03 22:36:24;;;;;;;106.45;35.17;;;5.50;99.90;;;;;;4993216;28;20391;-68
2021/12/03 22:38:50;;;;;;;112.72;36.60;;;;;;;;;;4992827;28;20050;-69
2021/12/03 22:41:16;;;;;;;123.20;37.97;;;;;;;;;;4992158;28;20553;-68
2021/12/03 22:43:43;;;;;;;115.93;36.28;;;;;;;;;;4991871;28;20047;-69
2021/12/03 22:48:40;;;;;;;111.38;36.42;;;;;;;;;;4992138;28;20052;-69
2021/12/03 22:53:34;;;;;;;112.00;37.25;;;5.30;99.90;;;;;;4991786;28;20133;-69
2021/12/03 22:56:00;;;;;;;111.45;35.80;;;;;;;;;;4993067;28;20129;-70
2021/12/03 22:58:26;;;;;;;111.20;35.25;;;;;;;;;;4992037;28;20057;-69
2021/12/03 23:00:52;;;;;;;114.53;33.80;;;5.20;99.90;;;;;;4992733;28;20050;-69